Lakeside, Colorado
Current Conditions -  °F | °C
As of 9:45 PM on Thursday 30 Oct 2014 (Local Time) from KBJC Reporting Station
Clear Clear  
Wind Chill: 48°   Ceiling: Unl
Heat Index: 48°   Visibility: 30mi
Dew Point: 28°   Wind: 3mph
Humidity: 46%   Direction: 160°SSE
Pressure: 30.41"   Gusts: NA
Location:  39.775°N, 105.049°W
Report Text: KBJC 310345Z 16003KT 30SM SKC 09/M02 A3041 RMK LAST
Loading
Personal Weather Stations






























Interactive Weather Map
Tropical Storm Tracking
New forecast layout! Learn more

10-Day Weather Forecast

Advertisements
Track Severe Weather on mobile